createdAt,value
2018-12-03T00:01:28.773Z,62.16
2018-12-03T00:04:15.361Z,61.42
2018-12-03T00:06:44.354Z,60.08
2018-12-03T00:09:12.690Z,60.14
2018-12-03T00:11:40.992Z,61.99
2018-12-03T00:14:09.826Z,61.89
2018-12-03T00:16:38.250Z,61.75
2018-12-03T00:19:14.246Z,62.93
2018-12-03T00:21:42.647Z,63.66
2018-12-03T00:24:11.076Z,61.86
2018-12-03T00:26:39.516Z,64.68
2018-12-03T00:29:07.870Z,63.86
2018-12-03T00:31:36.230Z,64.36
2018-12-03T00:34:04.584Z,62.04
2018-12-03T00:36:32.905Z,63.85
2018-12-03T00:39:01.274Z,62.62
2018-12-03T00:41:29.576Z,62.85
2018-12-03T00:43:58.026Z,63.83
2018-12-03T00:46:26.382Z,62.84
2018-12-03T00:48:55.070Z,62.55
2018-12-03T00:51:23.423Z,63.37
2018-12-03T00:53:51.787Z,63.14
2018-12-03T00:56:20.302Z,63.04
2018-12-03T00:58:48.633Z,61.53
2018-12-03T01:01:17.055Z,62.27
2018-12-03T01:03:45.358Z,63.53
2018-12-03T01:06:13.750Z,64.49
2018-12-03T01:08:42.095Z,65.10
2018-12-03T01:11:10.500Z,63.18
2018-12-03T01:13:38.868Z,62.55
2018-12-03T01:16:07.203Z,63.39
2018-12-03T01:18:35.642Z,64.28
2018-12-03T01:21:04.018Z,63.53
2018-12-03T01:23:32.566Z,64.29
2018-12-03T01:26:01.384Z,63.53
2018-12-03T01:28:29.694Z,64.74
2018-12-03T01:30:58.332Z,66.34
2018-12-03T01:33:26.610Z,65.59
2018-12-03T01:35:55.073Z,63.79
2018-12-03T01:38:23.394Z,66.18
2018-12-03T01:40:51.729Z,64.58
2018-12-03T01:43:20.229Z,65.62
2018-12-03T01:45:48.628Z,64.96
2018-12-03T01:48:16.910Z,63.64
2018-12-03T01:50:45.313Z,62.80
2018-12-03T01:53:13.607Z,63.68
2018-12-03T01:55:42.614Z,63.95
2018-12-03T01:58:10.902Z,64.41
2018-12-03T02:00:39.710Z,64.53
2018-12-03T02:03:08.062Z,63.92
2018-12-03T02:05:36.369Z,64.65
2018-12-03T02:08:04.667Z,62.87
2018-12-03T02:10:32.990Z,62.50
2018-12-03T02:13:01.270Z,62.95
2018-12-03T02:15:29.677Z,63.24
2018-12-03T02:17:57.964Z,61.19
2018-12-03T02:20:26.459Z,62.22
2018-12-03T02:22:54.802Z,60.55
2018-12-03T02:25:23.200Z,62.01
2018-12-03T02:27:51.494Z,61.50
2018-12-03T02:30:19.815Z,61.52
2018-12-03T02:32:48.096Z,61.86
2018-12-03T02:35:16.575Z,62.31
2018-12-03T02:37:44.909Z,61.58
2018-12-03T02:40:15.384Z,60.84
2018-12-03T02:42:43.683Z,61.45
2018-12-03T02:45:12.990Z,61.88
2018-12-03T02:47:41.296Z,61.63
2018-12-03T02:50:11.695Z,61.64
2018-12-03T02:52:40.582Z,60.91
2018-12-03T02:55:10.002Z,59.79
2018-12-03T02:57:38.546Z,60.60
2018-12-03T03:00:11.445Z,60.83
2018-12-03T03:02:39.793Z,60.84
2018-12-03T03:05:09.938Z,62.37
2018-12-03T03:07:38.244Z,61.42
2018-12-03T03:10:12.024Z,63.58
2018-12-03T03:12:40.555Z,63.21
2018-12-03T03:15:13.219Z,62.30
2018-12-03T03:17:41.665Z,63.41
2018-12-03T03:20:12.728Z,61.87
2018-12-03T03:22:41.067Z,62.21
2018-12-03T03:25:10.325Z,61.57
2018-12-03T03:27:38.862Z,60.87
2018-12-03T03:30:10.353Z,61.23
2018-12-03T03:32:38.673Z,59.94
2018-12-03T03:35:08.458Z,59.90
2018-12-03T03:37:37.094Z,59.66
2018-12-03T03:40:08.270Z,60.03
2018-12-03T03:42:36.727Z,58.61
2018-12-03T03:45:08.262Z,59.69
2018-12-03T03:47:36.820Z,59.76
2018-12-03T03:50:06.276Z,59.67
2018-12-03T03:52:34.919Z,60.97
2018-12-03T03:55:03.314Z,60.17
2018-12-03T03:57:31.896Z,61.28
2018-12-03T04:00:00.302Z,58.99
2018-12-03T04:02:29.167Z,58.83
2018-12-03T04:04:57.821Z,59.68
2018-12-03T04:07:26.539Z,60.94
2018-12-03T04:09:55.100Z,57.66
2018-12-03T04:12:23.667Z,60.18
2018-12-03T04:14:52.288Z,60.68
2018-12-03T04:17:21.421Z,63.60
2018-12-03T04:19:49.952Z,66.40
2018-12-03T04:22:18.490Z,65.30
2018-12-03T04:24:47.066Z,67.25
2018-12-03T04:27:15.778Z,67.59
2018-12-03T04:29:44.408Z,67.32
2018-12-03T04:32:12.981Z,67.28
2018-12-03T04:34:41.672Z,66.42
2018-12-03T04:37:10.437Z,65.11
2018-12-03T04:39:39.557Z,64.73
2018-12-03T04:42:08.448Z,64.16
2018-12-03T04:44:37.245Z,66.04
2018-12-03T04:47:06.112Z,65.87
2018-12-03T04:49:34.819Z,64.14
2018-12-03T04:52:03.606Z,64.28
2018-12-03T04:54:32.177Z,63.04
2018-12-03T04:57:00.644Z,64.49
2018-12-03T04:59:29.148Z,64.69
2018-12-03T05:01:57.774Z,64.37
2018-12-03T05:04:26.200Z,64.60
2018-12-03T05:06:54.656Z,63.85
2018-12-03T05:09:23.277Z,64.40
2018-12-03T05:11:51.772Z,63.11
2018-12-03T05:14:20.196Z,63.26
2018-12-03T05:16:48.588Z,63.50
2018-12-03T05:19:16.891Z,64.00
2018-12-03T05:21:45.270Z,63.73
2018-12-03T05:24:13.818Z,64.75
2018-12-03T05:26:42.208Z,63.57
2018-12-03T05:29:10.506Z,63.35
2018-12-03T05:31:38.822Z,61.14
2018-12-03T05:34:07.280Z,62.17
2018-12-03T05:36:35.555Z,63.59
2018-12-03T05:39:04.693Z,62.87
2018-12-03T05:41:33.017Z,63.64
2018-12-03T05:44:01.377Z,64.36
2018-12-03T05:46:29.666Z,61.56
2018-12-03T05:48:58.172Z,62.60
2018-12-03T05:51:26.522Z,64.36
2018-12-03T05:53:54.901Z,63.73
2018-12-03T05:56:23.202Z,63.98
2018-12-03T05:58:51.582Z,65.08
2018-12-03T06:01:19.833Z,63.95
2018-12-03T06:03:48.246Z,63.52
2018-12-03T06:06:16.641Z,63.10
2018-12-03T06:08:44.965Z,63.32
2018-12-03T06:11:13.287Z,64.00
2018-12-03T06:13:41.642Z,62.78
2018-12-03T06:16:10.321Z,62.69
2018-12-03T06:18:38.594Z,62.93
2018-12-03T06:21:07.062Z,63.32
2018-12-03T06:23:35.391Z,62.56
2018-12-03T06:26:03.700Z,61.67
2018-12-03T06:28:32.122Z,62.50
2018-12-03T06:31:00.530Z,62.89
2018-12-03T06:33:28.851Z,62.71
2018-12-03T06:35:57.207Z,62.49
2018-12-03T06:38:25.532Z,62.43
2018-12-03T06:40:54.032Z,62.48
2018-12-03T06:43:22.411Z,61.70
2018-12-03T06:45:50.777Z,60.49
2018-12-03T06:48:21.826Z,60.75
2018-12-03T06:50:50.146Z,61.67
2018-12-03T06:53:18.420Z,61.36
2018-12-03T06:55:46.957Z,61.92
2018-12-03T06:58:16.276Z,60.13
2018-12-03T07:00:46.908Z,60.84
2018-12-03T07:03:15.184Z,59.07
2018-12-03T07:05:44.254Z,60.65
2018-12-03T07:08:12.512Z,59.41
2018-12-03T07:10:40.767Z,58.78
2018-12-03T07:13:13.272Z,58.01
2018-12-03T07:15:43.147Z,58.21
2018-12-03T07:18:12.246Z,59.26
2018-12-03T07:20:40.510Z,56.72
2018-12-03T07:23:08.846Z,58.12
2018-12-03T07:25:37.418Z,57.72
2018-12-03T07:28:06.195Z,57.72
2018-12-03T07:30:34.469Z,56.48
2018-12-03T07:33:02.741Z,58.54
2018-12-03T07:35:31.184Z,58.40
2018-12-03T07:37:59.523Z,58.15
2018-12-03T07:40:27.818Z,58.10
2018-12-03T07:42:56.135Z,57.80
2018-12-03T07:45:25.410Z,59.31
2018-12-03T07:47:53.727Z,57.96
2018-12-03T07:50:22.975Z,60.96
2018-12-03T07:52:51.325Z,59.99
2018-12-03T07:55:20.869Z,61.49
2018-12-03T07:57:59.551Z,61.46
2018-12-03T08:00:33.760Z,64.22
2018-12-03T08:03:02.166Z,62.95
2018-12-03T08:05:30.517Z,61.76
2018-12-03T08:07:59.105Z,63.46
2018-12-03T08:10:27.512Z,62.53
2018-12-03T08:12:55.961Z,61.51
2018-12-03T08:15:24.330Z,59.37
2018-12-03T08:17:57.399Z,59.11
2018-12-03T08:20:29.434Z,59.54
2018-12-03T08:23:01.270Z,59.82
2018-12-03T08:25:29.578Z,58.73
2018-12-03T08:27:57.976Z,60.04
2018-12-03T08:30:26.460Z,58.93
2018-12-03T08:32:54.902Z,59.99
2018-12-03T08:35:23.255Z,60.47
2018-12-03T08:37:51.662Z,61.22
2018-12-03T08:40:20.469Z,61.80
2018-12-03T08:42:51.964Z,60.45
2018-12-03T08:45:21.199Z,57.76
2018-12-03T08:47:49.992Z,59.08
2018-12-03T08:50:23.442Z,59.42
2018-12-03T08:52:51.898Z,60.50
2018-12-03T08:55:20.224Z,58.59
2018-12-03T08:57:48.628Z,59.79
2018-12-03T09:00:32.013Z,59.68
2018-12-03T09:03:07.186Z,58.09
2018-12-03T09:05:37.727Z,58.91
2018-12-03T09:08:07.434Z,59.64
2018-12-03T09:10:35.926Z,59.09
2018-12-03T09:13:22.726Z,58.67
2018-12-03T09:16:03.158Z,58.14
2018-12-03T09:18:33.597Z,57.64
2018-12-03T09:21:02.378Z,58.52
2018-12-03T09:23:30.668Z,57.60
2018-12-03T09:25:58.971Z,59.30
2018-12-03T09:28:27.306Z,58.84
2018-12-03T09:30:55.666Z,57.90
2018-12-03T09:33:23.930Z,56.96
2018-12-03T09:35:52.329Z,58.73
2018-12-03T09:38:20.721Z,57.93
2018-12-03T09:40:49.034Z,59.99
2018-12-03T09:43:17.357Z,59.27
2018-12-03T09:45:45.701Z,57.62
2018-12-03T09:48:14.045Z,59.28
2018-12-03T09:50:42.390Z,59.73
2018-12-03T09:53:10.729Z,59.54
2018-12-03T09:55:39.164Z,59.81
2018-12-03T09:58:13.885Z,61.22
2018-12-03T10:00:42.714Z,61.30
2018-12-03T10:03:20.812Z,63.08
2018-12-03T10:05:51.843Z,63.30
2018-12-03T10:08:27.687Z,60.70
2018-12-03T10:10:57.216Z,58.16
2018-12-03T10:13:26.414Z,59.00
2018-12-03T10:15:54.804Z,59.29
2018-12-03T10:18:23.168Z,58.35
2018-12-03T10:20:53.077Z,56.47
2018-12-03T10:23:21.390Z,58.95
2018-12-03T10:25:51.914Z,59.28
2018-12-03T10:28:20.575Z,58.24
2018-12-03T10:30:49.550Z,57.19
2018-12-03T10:33:21.954Z,57.60
2018-12-03T10:35:50.478Z,56.76
2018-12-03T10:38:21.926Z,56.50
2018-12-03T10:41:01.109Z,58.35
2018-12-03T10:43:29.443Z,58.29
2018-12-03T10:45:57.876Z,56.71
2018-12-03T10:48:26.128Z,57.29
2018-12-03T10:50:54.392Z,56.38
2018-12-03T10:53:27.527Z,57.09
2018-12-03T10:55:55.973Z,58.32
2018-12-03T10:58:24.473Z,56.86
2018-12-03T11:01:05.971Z,58.10
2018-12-03T11:03:39.550Z,57.67
2018-12-03T11:06:13.374Z,57.91
2018-12-03T11:08:41.699Z,57.08
2018-12-03T11:11:10.039Z,55.16
2018-12-03T11:13:38.429Z,54.95
2018-12-03T11:16:09.128Z,55.38
2018-12-03T11:18:47.471Z,55.08
2018-12-03T11:21:15.766Z,54.35
2018-12-03T11:23:44.113Z,54.18
2018-12-03T11:26:12.407Z,53.57
2018-12-03T11:28:43.557Z,53.16
2018-12-03T11:31:19.350Z,54.69
2018-12-03T11:33:47.670Z,52.64
2018-12-03T11:36:17.044Z,52.59
2018-12-03T11:39:55.719Z,52.07
2018-12-03T11:42:29.080Z,53.02
2018-12-03T11:44:57.434Z,53.75
2018-12-03T11:47:25.924Z,53.15
2018-12-03T11:49:54.310Z,52.72
2018-12-03T11:52:22.584Z,51.54
2018-12-03T11:54:50.987Z,49.89
2018-12-03T11:57:19.325Z,50.91
2018-12-03T11:59:47.608Z,49.98
2018-12-03T12:02:16.014Z,53.55
2018-12-03T12:04:44.478Z,53.37
2018-12-03T12:07:12.841Z,52.57
2018-12-03T12:09:41.232Z,50.82
2018-12-03T12:12:09.614Z,49.37
2018-12-03T12:14:37.896Z,51.00
2018-12-03T12:17:06.597Z,50.12
2018-12-03T12:19:34.890Z,48.42
2018-12-03T12:22:03.452Z,47.61
2018-12-03T12:24:31.792Z,48.70
2018-12-03T12:27:00.109Z,48.18
2018-12-03T12:29:28.425Z,47.44
2018-12-03T12:31:56.769Z,46.69
2018-12-03T12:34:25.074Z,46.47
2018-12-03T12:36:53.375Z,46.72
2018-12-03T12:39:21.687Z,46.63
2018-12-03T12:41:49.985Z,48.59
2018-12-03T12:44:18.362Z,46.37
2018-12-03T12:46:48.832Z,47.56
2018-12-03T12:49:17.139Z,50.33
2018-12-03T12:51:45.502Z,50.22
2018-12-03T12:54:13.796Z,52.00
2018-12-03T12:56:42.146Z,51.06
2018-12-03T12:59:10.476Z,50.62
2018-12-03T13:01:38.857Z,50.35
2018-12-03T13:04:07.794Z,51.31
2018-12-03T13:06:36.223Z,51.32
2018-12-03T13:09:07.326Z,50.90
2018-12-03T13:11:35.780Z,51.61
2018-12-03T13:14:04.209Z,55.83
2018-12-03T13:16:32.463Z,58.92
2018-12-03T13:19:00.714Z,60.34
2018-12-03T13:21:29.139Z,63.37
2018-12-03T13:23:57.428Z,67.38
2018-12-03T13:26:25.903Z,64.83
2018-12-03T13:28:54.230Z,61.47
2018-12-03T13:31:22.560Z,63.23
2018-12-03T13:33:50.892Z,64.03
2018-12-03T13:36:19.392Z,63.46
2018-12-03T13:38:47.757Z,63.30
2018-12-03T13:41:16.034Z,63.13
2018-12-03T13:43:44.469Z,61.59
2018-12-03T13:46:12.799Z,62.12
2018-12-03T13:48:41.294Z,59.96
2018-12-03T13:51:09.611Z,61.77
2018-12-03T13:53:38.020Z,61.38
2018-12-03T13:56:06.534Z,60.91
2018-12-03T13:58:34.871Z,60.63
2018-12-03T14:01:03.380Z,60.80
2018-12-03T14:03:34.227Z,60.57
2018-12-03T14:06:13.992Z,60.33
2018-12-03T14:09:28.672Z,62.07
2018-12-03T14:12:07.779Z,60.92
2018-12-03T14:15:16.827Z,61.21
2018-12-03T14:17:49.833Z,59.49
2018-12-03T14:20:19.428Z,61.74
2018-12-03T14:22:54.599Z,58.91
2018-12-03T14:25:23.078Z,60.48
2018-12-03T14:27:51.408Z,58.72
2018-12-03T14:30:19.815Z,57.66
2018-12-03T14:32:48.328Z,57.50
2018-12-03T14:35:16.716Z,57.58
2018-12-03T14:37:45.010Z,58.64
2018-12-03T14:40:13.518Z,58.31
2018-12-03T14:42:41.883Z,57.84
2018-12-03T14:45:11.610Z,57.73
2018-12-03T14:47:39.966Z,58.27
2018-12-03T14:50:10.101Z,56.11
2018-12-03T14:52:38.477Z,56.14
2018-12-03T14:55:07.741Z,56.83
2018-12-03T14:57:36.239Z,57.18
2018-12-03T15:00:05.347Z,55.87
2018-12-03T15:02:34.354Z,55.39
2018-12-03T15:05:02.857Z,54.66
2018-12-03T15:07:31.470Z,56.96
2018-12-03T15:09:59.998Z,56.89
2018-12-03T15:12:28.350Z,55.52
2018-12-03T15:14:56.727Z,54.75
2018-12-03T15:17:25.199Z,55.02
2018-12-03T15:19:53.839Z,57.01
2018-12-03T15:22:22.192Z,55.55
2018-12-03T15:24:50.540Z,56.28
2018-12-03T15:27:18.930Z,56.80
2018-12-03T15:29:47.302Z,57.04
2018-12-03T15:32:15.702Z,54.39
2018-12-03T15:34:44.071Z,55.47
2018-12-03T15:37:12.396Z,57.01
2018-12-03T15:39:40.746Z,58.01
2018-12-03T15:42:09.176Z,58.01
2018-12-03T15:44:37.578Z,55.98
2018-12-03T15:47:05.859Z,57.16
2018-12-03T15:49:34.247Z,57.15
2018-12-03T15:52:02.719Z,58.22
2018-12-03T15:54:31.341Z,56.66
2018-12-03T15:56:59.840Z,57.45
2018-12-03T15:59:28.193Z,57.86
2018-12-03T16:01:56.464Z,57.02
2018-12-03T16:04:24.947Z,56.43
2018-12-03T16:06:53.247Z,57.29
2018-12-03T16:09:21.543Z,55.73
2018-12-03T16:11:49.877Z,58.56
2018-12-03T16:14:18.182Z,58.54
2018-12-03T16:16:46.815Z,59.92
2018-12-03T16:19:15.159Z,60.04
2018-12-03T16:21:43.470Z,61.22
2018-12-03T16:24:11.949Z,62.22
2018-12-03T16:26:40.281Z,62.91
2018-12-03T16:29:08.646Z,60.60
2018-12-03T16:31:37.176Z,62.71
2018-12-03T16:34:05.515Z,62.54
2018-12-03T16:36:34.394Z,62.58
2018-12-03T16:39:02.750Z,63.65
2018-12-03T16:41:31.015Z,65.10
2018-12-03T16:43:59.519Z,63.18
2018-12-03T16:46:27.863Z,63.27
2018-12-03T16:48:56.294Z,63.20
2018-12-03T16:51:24.656Z,63.23
2018-12-03T16:53:53.094Z,62.91
2018-12-03T16:56:21.459Z,62.81
2018-12-03T16:58:49.793Z,62.13
2018-12-03T17:01:18.132Z,62.59
2018-12-03T17:03:46.439Z,63.22
2018-12-03T17:06:14.817Z,64.07
2018-12-03T17:08:43.125Z,62.05
2018-12-03T17:11:11.490Z,62.73
2018-12-03T17:13:39.884Z,63.88
2018-12-03T17:16:08.231Z,63.37
2018-12-03T17:18:36.632Z,63.53
2018-12-03T17:21:09.940Z,62.38
2018-12-03T17:24:45.282Z,62.09
2018-12-03T17:27:13.656Z,63.89
2018-12-03T17:29:41.952Z,63.31
2018-12-03T17:32:10.333Z,64.42
2018-12-03T17:34:38.977Z,64.33
2018-12-03T17:37:07.505Z,65.12
2018-12-03T17:39:36.167Z,63.93
2018-12-03T17:42:04.526Z,62.68
2018-12-03T17:44:33.131Z,63.25
2018-12-03T17:47:01.475Z,64.21
2018-12-03T17:49:29.834Z,62.49
2018-12-03T17:51:58.236Z,61.46
2018-12-03T17:54:26.915Z,61.37
2018-12-03T17:56:55.950Z,64.31
2018-12-03T17:59:24.412Z,63.37
2018-12-03T18:01:53.069Z,64.26
2018-12-03T18:04:21.466Z,62.12
2018-12-03T18:06:49.914Z,63.20
2018-12-03T18:09:18.336Z,64.38
2018-12-03T18:11:47.109Z,63.88
2018-12-03T18:14:15.851Z,64.32
2018-12-03T18:16:44.678Z,61.96
2018-12-03T18:19:13.201Z,62.03
2018-12-03T18:21:41.574Z,61.51
2018-12-03T18:24:10.153Z,62.76
2018-12-03T18:26:38.557Z,62.40
2018-12-03T18:29:06.945Z,63.37
2018-12-03T18:31:36.225Z,64.10
2018-12-03T18:34:04.835Z,65.40
2018-12-03T18:36:33.332Z,66.51
2018-12-03T18:39:01.862Z,64.40
2018-12-03T18:41:30.281Z,65.84
2018-12-03T18:43:58.626Z,66.21
2018-12-03T18:46:27.005Z,68.77
2018-12-03T18:49:01.793Z,70.83
2018-12-03T18:51:30.397Z,72.97
2018-12-03T18:53:58.711Z,74.42
2018-12-03T18:56:27.139Z,72.91
2018-12-03T18:58:59.934Z,72.37
2018-12-03T19:01:28.384Z,72.46
2018-12-03T19:03:56.814Z,72.18
2018-12-03T19:06:25.264Z,70.64
2018-12-03T19:08:54.106Z,71.05
2018-12-03T19:11:23.213Z,78.20
2018-12-03T19:13:55.472Z,73.87
2018-12-03T19:16:28.288Z,71.68
2018-12-03T19:18:56.880Z,70.21
2018-12-03T19:21:56.350Z,66.56
2018-12-03T19:24:24.800Z,64.97
2018-12-03T19:26:53.336Z,66.57
2018-12-03T19:29:21.760Z,64.51
2018-12-03T19:31:50.204Z,67.31
2018-12-03T19:34:18.682Z,70.81
2018-12-03T19:36:47.237Z,69.10
2018-12-03T19:39:19.570Z,71.00
2018-12-03T19:41:56.915Z,70.43
2018-12-03T19:44:37.378Z,69.06
2018-12-03T19:47:23.554Z,68.14
2018-12-03T19:49:52.144Z,68.21
2018-12-03T19:52:22.364Z,69.48
2018-12-03T19:55:10.388Z,69.08
2018-12-03T19:57:48.730Z,69.85
2018-12-03T20:00:32.035Z,68.01
2018-12-03T20:03:00.891Z,68.59
2018-12-03T20:05:49.167Z,68.03
2018-12-03T20:08:26.144Z,68.20
2018-12-03T20:11:13.490Z,68.35
2018-12-03T20:13:48.224Z,69.78
2018-12-03T20:16:36.074Z,68.65
2018-12-03T20:19:15.690Z,67.58
2018-12-03T20:24:57.168Z,66.93
2018-12-03T20:27:49.388Z,67.49
2018-12-03T20:30:37.200Z,67.98
2018-12-03T20:33:24.129Z,67.70
2018-12-03T20:38:32.732Z,67.81
2018-12-03T20:41:18.377Z,66.37
2018-12-03T20:44:11.527Z,66.34
2018-12-03T20:51:01.021Z,65.41
2018-12-03T20:54:03.082Z,63.65
2018-12-03T20:56:32.051Z,64.89
2018-12-03T20:59:00.575Z,65.41
2018-12-03T21:01:29.380Z,65.15
2018-12-03T21:03:57.778Z,65.80
2018-12-03T21:06:26.112Z,65.33
2018-12-03T21:08:54.646Z,64.95
2018-12-03T21:11:23.066Z,63.60
2018-12-03T21:13:58.151Z,63.61
2018-12-03T21:16:26.673Z,62.01
2018-12-03T21:18:55.425Z,61.27
2018-12-03T21:21:31.852Z,61.53
2018-12-03T21:24:00.200Z,61.85
2018-12-03T21:26:35.975Z,60.93
2018-12-03T21:29:04.387Z,60.57
2018-12-03T21:31:32.795Z,60.39
2018-12-03T21:34:01.398Z,59.31
2018-12-03T21:36:30.858Z,59.81
2018-12-03T21:39:04.951Z,63.62
2018-12-03T21:41:33.405Z,62.82
2018-12-03T21:44:01.774Z,63.58
2018-12-03T21:46:30.111Z,64.03
2018-12-03T21:49:09.836Z,63.70
2018-12-03T21:51:38.310Z,62.67
2018-12-03T21:54:22.735Z,63.49
2018-12-03T21:56:58.306Z,64.11
2018-12-03T21:59:26.692Z,64.28
2018-12-03T22:01:55.163Z,64.05
2018-12-03T22:04:35.943Z,64.50
2018-12-03T22:07:17.623Z,63.99
2018-12-03T22:09:54.231Z,62.70
2018-12-03T22:12:39.865Z,61.37
2018-12-03T22:15:08.759Z,62.31
2018-12-03T22:17:46.919Z,62.57
2018-12-03T22:20:29.116Z,59.68
2018-12-03T22:22:57.770Z,60.31
2018-12-03T22:25:26.100Z,58.38
2018-12-03T22:27:54.414Z,60.17
2018-12-03T22:30:22.818Z,61.89
2018-12-03T22:33:01.639Z,60.99
2018-12-03T22:35:30.124Z,60.00
2018-12-03T22:37:59.243Z,58.48
2018-12-03T22:40:27.781Z,58.41
2018-12-03T22:42:56.774Z,59.69
2018-12-03T22:45:25.150Z,58.68
2018-12-03T22:47:53.621Z,60.06
2018-12-03T22:50:22.080Z,60.14
2018-12-03T22:52:51.747Z,60.29
2018-12-03T22:55:20.122Z,59.15
2018-12-03T22:57:48.633Z,59.33
2018-12-03T23:00:22.271Z,58.50
2018-12-03T23:02:50.745Z,59.11
2018-12-03T23:05:19.261Z,60.40
2018-12-03T23:07:47.652Z,61.10
2018-12-03T23:10:18.997Z,60.59
2018-12-03T23:12:47.657Z,60.53
2018-12-03T23:15:16.359Z,60.88
2018-12-03T23:17:44.891Z,62.44
2018-12-03T23:20:13.386Z,62.39
2018-12-03T23:22:42.089Z,63.21
2018-12-03T23:25:10.484Z,63.58
2018-12-03T23:27:39.026Z,62.85
2018-12-03T23:30:09.374Z,62.57
2018-12-03T23:32:40.354Z,61.23
2018-12-03T23:35:08.758Z,62.70
2018-12-03T23:37:37.056Z,61.48
2018-12-03T23:40:05.489Z,61.57
2018-12-03T23:42:33.839Z,62.69
2018-12-03T23:45:02.286Z,61.53
2018-12-03T23:47:30.831Z,62.78
2018-12-03T23:49:59.202Z,61.28
2018-12-03T23:52:27.509Z,60.37
2018-12-03T23:54:56.078Z,59.61
2018-12-03T23:57:24.515Z,61.41
2018-12-03T23:59:52.808Z,62.53
